createdAt,value
2022-10-19T00:00:30.964Z,15.87
2022-10-19T00:02:57.631Z,13.60
2022-10-19T00:05:24.264Z,14.97
2022-10-19T00:07:50.903Z,13.57
2022-10-19T00:10:17.600Z,14.10
2022-10-19T00:12:44.323Z,12.80
2022-10-19T00:15:11.052Z,14.40
2022-10-19T00:17:37.725Z,13.57
2022-10-19T00:20:04.881Z,13.30
2022-10-19T00:22:31.777Z,11.47
2022-10-19T00:24:58.640Z,12.57
2022-10-19T00:27:25.390Z,11.53
2022-10-19T00:29:52.106Z,11.30
2022-10-19T00:32:18.888Z,12.03
2022-10-19T00:34:45.630Z,11.73
2022-10-19T00:37:12.343Z,12.73
2022-10-19T00:39:39.379Z,13.13
2022-10-19T00:42:06.327Z,12.33
2022-10-19T00:44:32.938Z,12.83
2022-10-19T00:47:07.910Z,12.33
2022-10-19T00:49:39.353Z,12.83
2022-10-19T00:52:12.600Z,12.60
2022-10-19T00:54:41.496Z,11.80
2022-10-19T00:57:09.694Z,13.40
2022-10-19T00:59:38.367Z,11.57
2022-10-19T01:02:06.409Z,11.63
2022-10-19T01:04:35.985Z,12.60
2022-10-19T01:07:04.908Z,11.40
2022-10-19T01:09:31.598Z,11.03
2022-10-19T01:12:15.191Z,11.97
2022-10-19T01:15:06.802Z,13.17
2022-10-19T01:17:52.068Z,13.23
2022-10-19T01:20:18.692Z,12.23
2022-10-19T01:23:03.130Z,13.13
2022-10-19T01:25:44.807Z,13.10
2022-10-19T01:28:45.048Z,12.80
2022-10-19T01:31:26.481Z,11.80
2022-10-19T01:34:11.633Z,13.40
2022-10-19T01:37:15.697Z,13.13
2022-10-19T01:39:51.253Z,12.67
2022-10-19T01:42:44.651Z,12.43
2022-10-19T01:45:39.452Z,12.50
2022-10-19T01:48:16.711Z,12.57
2022-10-19T01:50:49.511Z,12.80
2022-10-19T01:53:18.992Z,12.90
2022-10-19T01:55:50.295Z,12.20
2022-10-19T01:58:21.350Z,11.03
2022-10-19T02:00:49.884Z,10.90
2022-10-19T02:03:17.947Z,11.73
2022-10-19T02:05:47.101Z,10.77
2022-10-19T02:08:18.232Z,10.97
2022-10-19T02:10:46.415Z,10.50
2022-10-19T02:13:15.356Z,10.17
2022-10-19T02:15:46.607Z,11.13
2022-10-19T02:18:18.103Z,9.50
2022-10-19T02:20:45.393Z,10.20
2022-10-19T02:23:14.036Z,11.17
2022-10-19T02:25:40.785Z,11.47
2022-10-19T02:28:07.492Z,10.40
2022-10-19T02:30:34.218Z,11.53
2022-10-19T02:33:00.949Z,10.30
2022-10-19T02:35:28.118Z,11.23
2022-10-19T02:37:58.247Z,10.13
2022-10-19T02:40:25.791Z,11.10
2022-10-19T02:42:57.677Z,11.30
2022-10-19T02:45:29.825Z,11.73
2022-10-19T02:48:02.049Z,10.53
2022-10-19T02:50:29.154Z,10.90
2022-10-19T02:52:57.984Z,10.37
2022-10-19T02:55:24.828Z,11.93
2022-10-19T02:57:51.491Z,11.27
2022-10-19T03:00:18.181Z,10.20
2022-10-19T03:02:44.822Z,10.67
2022-10-19T03:05:11.464Z,11.00
2022-10-19T03:07:38.136Z,9.30
2022-10-19T03:10:05.079Z,9.57
2022-10-19T03:12:31.745Z,8.47
2022-10-19T03:14:58.436Z,9.07
2022-10-19T03:17:25.098Z,9.50
2022-10-19T03:19:51.766Z,9.53
2022-10-19T03:22:18.409Z,9.37
2022-10-19T03:24:45.106Z,9.90
2022-10-19T03:27:11.778Z,9.57
2022-10-19T03:29:38.426Z,10.23
2022-10-19T03:32:05.305Z,10.27
2022-10-19T03:34:32.077Z,11.17
2022-10-19T03:36:59.308Z,11.47
2022-10-19T03:39:26.282Z,10.93
2022-10-19T03:41:52.980Z,11.37
2022-10-19T03:44:19.672Z,12.00
2022-10-19T03:46:46.469Z,11.53
2022-10-19T03:49:13.218Z,10.37
2022-10-19T03:51:39.951Z,10.63
2022-10-19T03:54:09.142Z,12.13
2022-10-19T03:56:36.427Z,11.10
2022-10-19T03:59:05.557Z,9.83
2022-10-19T04:01:38.452Z,10.00
2022-10-19T04:04:09.657Z,9.90
2022-10-19T04:06:39.117Z,10.10
2022-10-19T04:09:07.614Z,9.97
2022-10-19T04:11:35.508Z,9.67
2022-10-19T04:14:02.461Z,9.90
2022-10-19T04:16:30.605Z,9.63
2022-10-19T04:18:57.760Z,9.20
2022-10-19T04:21:50.534Z,9.50
2022-10-19T04:24:18.740Z,10.13
2022-10-19T04:26:53.838Z,9.53
2022-10-19T04:29:25.059Z,9.70
2022-10-19T04:31:54.674Z,9.13
2022-10-19T04:34:21.340Z,9.10
2022-10-19T04:36:48.395Z,9.87
2022-10-19T04:39:15.165Z,9.30
2022-10-19T04:41:41.872Z,10.40
2022-10-19T04:44:09.459Z,9.57
2022-10-19T04:46:37.326Z,10.40
2022-10-19T04:49:06.076Z,9.40
2022-10-19T04:51:33.139Z,9.07
2022-10-19T04:54:00.316Z,9.37
2022-10-19T04:56:27.868Z,8.90
2022-10-19T04:58:56.714Z,9.67
2022-10-19T05:01:24.429Z,9.67
2022-10-19T05:06:28.190Z,10.50
2022-10-19T05:08:55.355Z,10.07
2022-10-19T05:11:22.329Z,9.60
2022-10-19T05:13:49.431Z,10.37
2022-10-19T05:16:18.953Z,10.40
2022-10-19T05:18:55.962Z,11.63
2022-10-19T05:21:23.101Z,11.70
2022-10-19T05:23:52.640Z,10.00
2022-10-19T05:26:21.141Z,9.63
2022-10-19T05:28:56.361Z,9.17
2022-10-19T05:31:28.512Z,10.73
2022-10-19T05:33:56.311Z,10.17
2022-10-19T05:36:27.785Z,10.57
2022-10-19T05:38:56.809Z,9.20
2022-10-19T05:41:24.906Z,10.90
2022-10-19T05:43:56.631Z,10.50
2022-10-19T05:46:24.491Z,10.87
2022-10-19T05:48:51.580Z,10.00
2022-10-19T05:51:20.272Z,11.30
2022-10-19T05:53:47.644Z,10.70
2022-10-19T05:56:20.825Z,10.80
2022-10-19T05:58:47.987Z,12.20
2022-10-19T06:01:16.270Z,12.67
2022-10-19T06:03:42.916Z,11.50
2022-10-19T06:06:10.062Z,10.90
2022-10-19T06:08:37.973Z,11.10
2022-10-19T06:11:35.014Z,10.00
2022-10-19T06:14:04.066Z,9.07
2022-10-19T06:16:31.927Z,10.33
2022-10-19T06:18:59.258Z,9.93
2022-10-19T06:21:29.022Z,9.83
2022-10-19T06:24:02.337Z,10.07
2022-10-19T06:26:30.780Z,9.67
2022-10-19T06:29:00.387Z,10.27
2022-10-19T06:31:31.639Z,10.73
2022-10-19T06:33:58.556Z,11.17
2022-10-19T06:36:27.664Z,10.00
2022-10-19T06:38:54.968Z,11.73
2022-10-19T06:41:21.709Z,11.00
2022-10-19T06:43:53.570Z,11.00
2022-10-19T06:46:23.181Z,11.47
2022-10-19T06:48:54.525Z,11.70
2022-10-19T06:51:21.761Z,10.73
2022-10-19T06:53:51.691Z,12.07
2022-10-19T06:56:21.364Z,11.23
2022-10-19T06:58:49.883Z,12.70
2022-10-19T07:01:16.816Z,12.63
2022-10-19T07:03:43.902Z,13.90
2022-10-19T07:06:12.489Z,13.83
2022-10-19T07:08:41.041Z,12.43
2022-10-19T07:11:10.956Z,11.60
2022-10-19T07:13:38.083Z,12.10
2022-10-19T07:16:07.834Z,11.67
2022-10-19T07:18:36.233Z,10.93
2022-10-19T07:21:06.077Z,11.13
2022-10-19T07:23:34.430Z,10.97
2022-10-19T07:26:11.921Z,9.67
2022-10-19T07:28:40.235Z,10.73
2022-10-19T07:31:13.173Z,9.77
2022-10-19T07:33:40.040Z,9.67
2022-10-19T07:36:08.929Z,8.07
2022-10-19T07:38:36.907Z,8.53
2022-10-19T07:41:04.019Z,8.43
2022-10-19T07:43:30.760Z,8.40
2022-10-19T07:45:59.053Z,9.07
2022-10-19T07:48:26.164Z,8.47
2022-10-19T07:50:53.071Z,9.03
2022-10-19T07:53:20.207Z,7.97
2022-10-19T07:55:46.834Z,8.00
2022-10-19T07:58:13.873Z,8.70
2022-10-19T08:03:43.645Z,7.80
2022-10-19T08:06:08.940Z,7.23
2022-10-19T08:08:36.290Z,7.63
2022-10-19T08:11:09.967Z,8.50
2022-10-19T08:13:37.364Z,7.93
2022-10-19T08:16:04.811Z,9.20
2022-10-19T08:21:03.643Z,7.67
2022-10-19T08:23:30.752Z,6.90
2022-10-19T08:25:59.373Z,7.47
2022-10-19T08:28:26.036Z,7.67
2022-10-19T08:30:57.914Z,7.77
2022-10-19T08:33:25.884Z,7.73
2022-10-19T08:35:53.983Z,6.97
2022-10-19T08:38:21.000Z,7.17
2022-10-19T08:40:48.199Z,6.67
2022-10-19T08:43:32.873Z,7.33
2022-10-19T08:46:20.513Z,6.97
2022-10-19T08:48:47.176Z,6.17
2022-10-19T08:51:14.436Z,6.30
2022-10-19T08:53:51.536Z,6.77
2022-10-19T08:56:49.362Z,7.57
2022-10-19T08:59:32.560Z,6.77
2022-10-19T09:02:11.226Z,6.53
2022-10-19T09:04:42.247Z,6.47
2022-10-19T09:07:31.067Z,6.33
2022-10-19T09:10:00.129Z,6.20
2022-10-19T09:12:46.453Z,5.93
2022-10-19T09:15:17.764Z,6.40
2022-10-19T09:17:44.499Z,5.77
2022-10-19T09:20:25.117Z,5.60
2022-10-19T09:23:20.707Z,6.40
2022-10-19T09:25:50.380Z,6.23
2022-10-19T09:28:43.263Z,5.90
2022-10-19T09:31:38.285Z,5.60
2022-10-19T09:34:21.768Z,4.80
2022-10-19T09:36:57.024Z,5.13
2022-10-19T09:39:28.655Z,5.50
2022-10-19T09:42:05.306Z,5.80
2022-10-19T09:44:32.554Z,5.00
2022-10-19T09:47:17.290Z,5.10
2022-10-19T09:49:47.680Z,4.43
2022-10-19T09:52:37.019Z,4.77
2022-10-19T09:55:22.380Z,5.57
2022-10-19T09:57:58.291Z,5.10
2022-10-19T10:00:32.077Z,4.60
2022-10-19T10:02:59.235Z,4.93
2022-10-19T10:05:40.022Z,4.87
2022-10-19T10:08:19.997Z,4.53
2022-10-19T10:10:53.526Z,4.90
2022-10-19T10:13:23.746Z,4.70
2022-10-19T10:15:56.496Z,4.60
2022-10-19T10:18:24.798Z,5.43
2022-10-19T10:21:13.300Z,5.00
2022-10-19T10:23:40.406Z,4.40
2022-10-19T10:26:18.515Z,4.57
2022-10-19T10:28:51.047Z,4.60
2022-10-19T10:31:27.355Z,5.03
2022-10-19T10:34:12.310Z,4.40
2022-10-19T10:36:53.612Z,4.90
2022-10-19T10:39:20.718Z,4.27
2022-10-19T10:41:48.756Z,5.27
2022-10-19T10:44:20.629Z,7.80
2022-10-19T10:46:56.255Z,4.27
2022-10-19T10:49:29.037Z,4.20
2022-10-19T10:52:04.363Z,3.73
2022-10-19T10:54:32.647Z,3.80
2022-10-19T10:57:12.987Z,3.63
2022-10-19T11:00:01.092Z,3.70
2022-10-19T11:02:46.230Z,3.97
2022-10-19T11:05:30.930Z,3.37
2022-10-19T11:08:12.676Z,3.40
2022-10-19T11:11:13.941Z,3.10
2022-10-19T11:14:07.919Z,2.80
2022-10-19T11:16:44.109Z,2.87
2022-10-19T11:19:33.240Z,3.10
2022-10-19T11:22:17.833Z,2.83
2022-10-19T11:25:12.989Z,3.20
2022-10-19T11:27:56.441Z,3.07
2022-10-19T11:30:25.438Z,2.73
2022-10-19T11:33:18.340Z,3.60
2022-10-19T11:35:56.681Z,2.90
2022-10-19T11:38:53.884Z,3.03
2022-10-19T11:41:35.836Z,3.10
2022-10-19T11:44:30.935Z,2.93
2022-10-19T11:47:18.968Z,2.70
2022-10-19T11:49:54.702Z,2.90
2022-10-19T11:52:34.537Z,3.03
2022-10-19T11:55:22.543Z,3.07
2022-10-19T11:58:08.292Z,3.17
2022-10-19T12:00:50.505Z,2.70
2022-10-19T12:03:54.620Z,3.23
2022-10-19T12:06:28.476Z,2.83
2022-10-19T12:09:16.474Z,2.90
2022-10-19T12:11:48.917Z,2.67
2022-10-19T12:14:22.311Z,2.90
2022-10-19T12:17:01.014Z,2.70
2022-10-19T12:19:36.886Z,2.90
2022-10-19T12:22:06.162Z,2.60
2022-10-19T12:24:35.136Z,2.60
2022-10-19T12:27:02.142Z,2.70
2022-10-19T12:29:36.189Z,2.87
2022-10-19T12:32:04.556Z,3.00
2022-10-19T12:34:59.130Z,3.23
2022-10-19T12:37:34.988Z,4.47
2022-10-19T12:40:26.364Z,3.10
2022-10-19T12:43:01.776Z,3.47
2022-10-19T12:45:35.742Z,2.87
2022-10-19T12:48:08.589Z,3.23
2022-10-19T12:50:50.346Z,3.77
2022-10-19T12:53:40.037Z,3.50
2022-10-19T12:56:09.754Z,3.13
2022-10-19T12:58:47.882Z,3.30
2022-10-19T13:01:33.668Z,3.57
2022-10-19T13:04:23.532Z,3.30
2022-10-19T13:06:51.831Z,3.60
2022-10-19T13:09:31.587Z,3.33
2022-10-19T13:12:16.276Z,3.97
2022-10-19T13:14:54.294Z,3.07
2022-10-19T13:17:36.855Z,3.10
2022-10-19T13:20:16.104Z,3.50
2022-10-19T13:23:03.523Z,3.60
2022-10-19T13:25:40.841Z,3.63
2022-10-19T13:28:07.597Z,3.90
2022-10-19T13:30:41.740Z,3.60
2022-10-19T13:33:32.117Z,3.77
2022-10-19T13:35:58.749Z,3.37
2022-10-19T13:38:26.421Z,3.80
2022-10-19T13:41:03.020Z,3.07
2022-10-19T13:43:31.959Z,3.30
2022-10-19T13:46:12.941Z,3.40
2022-10-19T13:49:01.697Z,3.33
2022-10-19T13:51:46.709Z,3.10
2022-10-19T13:54:19.187Z,3.23
2022-10-19T13:57:16.301Z,3.07
2022-10-19T14:00:19.681Z,3.20
2022-10-19T14:02:59.621Z,2.83
2022-10-19T14:05:49.311Z,2.90
2022-10-19T14:08:44.828Z,3.10
2022-10-19T14:11:21.644Z,3.10
2022-10-19T14:14:07.669Z,2.70
2022-10-19T14:16:34.515Z,3.60
2022-10-19T14:19:01.282Z,2.90
2022-10-19T14:21:36.840Z,3.10
2022-10-19T14:24:18.581Z,2.67
2022-10-19T14:26:46.642Z,2.50
2022-10-19T14:29:13.888Z,3.20
2022-10-19T14:31:40.700Z,2.97
2022-10-19T14:34:09.235Z,2.90
2022-10-19T14:36:44.037Z,2.77
2022-10-19T14:39:32.393Z,2.40
2022-10-19T14:42:10.664Z,2.80
2022-10-19T14:44:40.864Z,2.87
2022-10-19T14:47:18.284Z,2.77
2022-10-19T14:49:45.245Z,2.77
2022-10-19T14:52:17.074Z,2.70
2022-10-19T14:54:47.565Z,2.50
2022-10-19T14:57:31.413Z,2.70
2022-10-19T15:00:15.316Z,2.60
2022-10-19T15:02:47.001Z,2.47
2022-10-19T15:05:23.867Z,2.67
2022-10-19T15:07:51.221Z,2.80
2022-10-19T15:10:25.049Z,2.87
2022-10-19T15:12:57.654Z,2.67
2022-10-19T15:15:28.552Z,3.10
2022-10-19T15:18:06.676Z,2.67
2022-10-19T15:20:44.159Z,2.50
2022-10-19T15:23:40.643Z,2.70
2022-10-19T15:26:17.166Z,2.60
2022-10-19T15:28:44.774Z,2.30
2022-10-19T15:31:26.380Z,2.30
2022-10-19T15:33:55.949Z,2.63
2022-10-19T15:36:23.946Z,2.97
2022-10-19T15:41:54.495Z,2.17
2022-10-19T15:44:41.970Z,2.53
2022-10-19T15:47:20.364Z,2.40
2022-10-19T15:49:50.223Z,2.63
2022-10-19T15:52:19.086Z,2.50
2022-10-19T15:54:50.059Z,2.50
2022-10-19T15:57:25.919Z,2.50
2022-10-19T15:59:53.258Z,2.20
2022-10-19T16:02:20.014Z,2.57
2022-10-19T16:04:46.766Z,3.03
2022-10-19T16:07:19.607Z,2.90
2022-10-19T16:09:46.287Z,3.40
2022-10-19T16:12:12.951Z,3.23
2022-10-19T16:14:39.656Z,3.23
2022-10-19T16:17:06.396Z,2.60
2022-10-19T16:19:33.087Z,2.50
2022-10-19T16:21:59.719Z,2.50
2022-10-19T16:24:26.444Z,2.40
2022-10-19T16:26:53.099Z,3.00
2022-10-19T16:29:19.852Z,2.90
2022-10-19T16:31:46.513Z,3.70
2022-10-19T16:34:13.296Z,3.10
2022-10-19T16:36:39.947Z,3.00
2022-10-19T16:39:06.765Z,2.80
2022-10-19T16:41:33.487Z,2.87
2022-10-19T16:44:00.240Z,2.70
2022-10-19T16:46:27.237Z,2.60
2022-10-19T16:48:54.364Z,3.00
2022-10-19T16:51:37.165Z,2.97
2022-10-19T16:54:05.332Z,2.80
2022-10-19T16:56:32.803Z,3.23
2022-10-19T16:59:02.896Z,3.00
2022-10-19T17:01:30.247Z,2.73
2022-10-19T17:03:57.559Z,2.90
2022-10-19T17:06:24.899Z,2.97
2022-10-19T17:09:29.926Z,2.90
2022-10-19T17:11:40.285Z,3.30
2022-10-19T17:14:10.727Z,2.80
2022-10-19T17:16:38.870Z,3.77
2022-10-19T17:19:06.769Z,3.50
2022-10-19T17:21:37.841Z,3.70
2022-10-19T17:24:06.969Z,4.07
2022-10-19T17:26:39.731Z,3.83
2022-10-19T17:29:07.586Z,3.57
2022-10-19T17:31:37.459Z,3.50
2022-10-19T17:34:04.941Z,3.37
2022-10-19T17:36:35.825Z,3.43
2022-10-19T17:39:06.585Z,3.60
2022-10-19T17:41:33.601Z,3.30
2022-10-19T17:44:00.465Z,3.20
2022-10-19T17:46:29.789Z,3.33
2022-10-19T17:48:57.901Z,3.30
2022-10-19T17:51:28.829Z,3.17
2022-10-19T17:54:05.315Z,3.57
2022-10-19T17:56:32.326Z,3.60
2022-10-19T17:58:59.705Z,3.60
2022-10-19T18:01:26.855Z,3.40
2022-10-19T18:03:53.895Z,3.63
2022-10-19T18:06:31.348Z,3.70
2022-10-19T18:08:59.672Z,3.10
2022-10-19T18:11:28.894Z,3.43
2022-10-19T18:13:58.315Z,3.20
2022-10-19T18:16:26.755Z,3.17
2022-10-19T18:18:56.583Z,3.10
2022-10-19T18:21:25.891Z,3.20
2022-10-19T18:23:53.734Z,3.40
2022-10-19T18:26:23.205Z,3.13
2022-10-19T18:28:52.461Z,3.43
2022-10-19T18:31:22.361Z,2.87
2022-10-19T18:33:54.926Z,3.07
2022-10-19T18:36:21.692Z,3.27
2022-10-19T18:38:57.098Z,3.20
2022-10-19T18:41:24.367Z,3.23
2022-10-19T18:43:53.706Z,2.90
2022-10-19T18:46:22.342Z,3.03
2022-10-19T18:48:49.875Z,3.47
2022-10-19T18:51:18.133Z,3.37
2022-10-19T18:53:45.630Z,3.07
2022-10-19T18:56:14.743Z,2.90
2022-10-19T18:58:41.610Z,3.67
2022-10-19T19:01:18.921Z,3.40
2022-10-19T19:03:47.507Z,2.80
2022-10-19T19:06:18.600Z,2.97
2022-10-19T19:08:45.775Z,3.33
2022-10-19T19:11:21.351Z,3.00
2022-10-19T19:13:56.832Z,3.20
2022-10-19T19:16:24.746Z,3.90
2022-10-19T19:18:51.556Z,3.03
2022-10-19T19:21:24.579Z,3.27
2022-10-19T19:23:52.613Z,3.27
2022-10-19T19:26:20.399Z,3.07
2022-10-19T19:28:49.091Z,3.30
2022-10-19T19:31:19.390Z,3.20
2022-10-19T19:33:47.180Z,3.00
2022-10-19T19:36:16.065Z,3.37
2022-10-19T19:38:43.336Z,3.40
2022-10-19T19:41:13.147Z,3.00
2022-10-19T19:43:40.812Z,3.43
2022-10-19T19:46:12.514Z,3.23
2022-10-19T19:48:41.615Z,3.10
2022-10-19T19:51:16.965Z,2.77
2022-10-19T19:53:44.721Z,3.33
2022-10-19T19:56:13.047Z,3.30
2022-10-19T19:58:40.732Z,3.57
2022-10-19T20:01:19.562Z,3.67
2022-10-19T20:03:47.492Z,3.40
2022-10-19T20:06:18.686Z,3.20
2022-10-19T20:08:47.600Z,3.57
2022-10-19T20:11:17.465Z,3.63
2022-10-19T20:13:45.405Z,3.53
2022-10-19T20:16:15.295Z,3.77
2022-10-19T20:18:44.554Z,3.20
2022-10-19T20:21:12.176Z,3.83
2022-10-19T20:23:38.938Z,3.17
2022-10-19T20:26:06.272Z,3.07
2022-10-19T20:28:33.544Z,3.43
2022-10-19T20:31:05.995Z,4.00
2022-10-19T20:33:35.510Z,2.90
2022-10-19T20:36:07.190Z,3.27
2022-10-19T20:38:35.455Z,3.57
2022-10-19T20:41:08.143Z,3.37
2022-10-19T20:43:37.082Z,3.70
2022-10-19T20:46:11.044Z,3.87
2022-10-19T20:48:37.767Z,3.57
2022-10-19T20:51:19.412Z,3.30
2022-10-19T20:53:49.554Z,3.90
2022-10-19T20:56:18.914Z,3.40
2022-10-19T20:58:45.639Z,3.70
2022-10-19T21:01:19.222Z,3.47
2022-10-19T21:03:52.644Z,3.80
2022-10-19T21:06:21.015Z,3.70
2022-10-19T21:08:48.278Z,3.90
2022-10-19T21:11:35.506Z,3.90
2022-10-19T21:14:05.640Z,4.03
2022-10-19T21:16:33.997Z,4.20
2022-10-19T21:19:02.553Z,4.33
2022-10-19T21:21:35.572Z,4.03
2022-10-19T21:24:15.891Z,4.20
2022-10-19T21:26:42.969Z,4.23
2022-10-19T21:29:11.779Z,4.63
2022-10-19T21:31:43.050Z,3.87
2022-10-19T21:34:14.552Z,4.63
2022-10-19T21:36:41.389Z,4.20
2022-10-19T21:39:08.056Z,4.63
2022-10-19T21:41:34.979Z,4.40
2022-10-19T21:44:02.118Z,4.33
2022-10-19T21:46:28.978Z,4.30
2022-10-19T21:48:56.142Z,4.20
2022-10-19T21:51:26.156Z,4.60
2022-10-19T21:53:55.827Z,4.10
2022-10-19T21:56:22.818Z,4.40
2022-10-19T21:58:51.616Z,4.07
2022-10-19T22:01:20.372Z,4.97
2022-10-19T22:03:47.104Z,4.53
2022-10-19T22:06:14.214Z,5.03
2022-10-19T22:08:45.018Z,4.97
2022-10-19T22:11:13.946Z,4.33
2022-10-19T22:13:41.148Z,4.80
2022-10-19T22:16:10.987Z,4.33
2022-10-19T22:18:38.103Z,4.90
2022-10-19T22:21:07.495Z,4.43
2022-10-19T22:23:34.602Z,5.10
2022-10-19T22:26:01.352Z,5.47
2022-10-19T22:28:28.347Z,4.73
2022-10-19T22:30:56.581Z,5.10
2022-10-19T22:33:23.984Z,5.33
2022-10-19T22:35:55.499Z,5.10
2022-10-19T22:38:22.401Z,5.37
2022-10-19T22:40:49.109Z,6.07
2022-10-19T22:43:16.244Z,5.70
2022-10-19T22:45:43.403Z,6.00
2022-10-19T22:48:10.099Z,5.80
2022-10-19T22:50:37.213Z,5.53
2022-10-19T22:53:03.887Z,6.00
2022-10-19T22:55:31.035Z,6.07
2022-10-19T22:57:57.929Z,6.63
2022-10-19T23:00:24.829Z,6.17
2022-10-19T23:02:51.995Z,6.40
2022-10-19T23:05:19.005Z,6.47
2022-10-19T23:07:46.063Z,6.83
2022-10-19T23:10:13.043Z,6.67
2022-10-19T23:12:39.803Z,6.87
2022-10-19T23:15:07.071Z,6.37
2022-10-19T23:17:34.096Z,7.30
2022-10-19T23:20:00.971Z,6.73
2022-10-19T23:22:27.617Z,6.90
2022-10-19T23:24:54.696Z,7.53
2022-10-19T23:27:21.373Z,6.63
2022-10-19T23:29:48.036Z,6.70
2022-10-19T23:32:15.170Z,6.53
2022-10-19T23:34:44.461Z,6.57
2022-10-19T23:37:14.161Z,6.50
2022-10-19T23:39:41.236Z,6.90
2022-10-19T23:42:07.884Z,6.93
2022-10-19T23:44:34.980Z,7.03
2022-10-19T23:47:02.012Z,7.30
2022-10-19T23:49:28.701Z,6.43
2022-10-19T23:51:55.814Z,7.17
2022-10-19T23:54:22.535Z,7.17
2022-10-19T23:56:49.610Z,6.97
2022-10-19T23:59:16.258Z,6.20
